createdAt,value
2022-10-28T00:04:53.056Z,9.17
2022-10-28T00:14:56.524Z,9.14
2022-10-28T00:25:00.293Z,9.14
2022-10-28T00:35:03.334Z,9.09
2022-10-28T00:45:09.540Z,9.08
2022-10-28T00:55:15.058Z,9.09
2022-10-28T01:05:17.504Z,9.08
2022-10-28T01:15:27.515Z,9.15
2022-10-28T01:25:46.047Z,9.29
2022-10-28T01:35:51.909Z,9.41
2022-10-28T01:45:56.169Z,9.46
2022-10-28T01:56:04.512Z,9.50
2022-10-28T02:06:15.054Z,9.45
2022-10-28T02:16:18.254Z,9.28
2022-10-28T02:26:24.694Z,9.10
2022-10-28T02:36:32.362Z,8.95
2022-10-28T02:46:37.668Z,8.83
2022-10-28T02:56:46.448Z,8.83
2022-10-28T03:06:49.966Z,8.84
2022-10-28T03:16:53.603Z,8.87
2022-10-28T03:26:57.255Z,8.89
2022-10-28T03:37:00.800Z,9.04
2022-10-28T03:47:04.464Z,9.21
2022-10-28T03:57:08.044Z,9.40
2022-10-28T04:07:11.753Z,9.57
2022-10-28T04:17:16.286Z,9.60
2022-10-28T04:27:19.866Z,9.61
2022-10-28T04:37:23.437Z,9.59
2022-10-28T04:47:26.886Z,9.58
2022-10-28T04:57:31.953Z,9.58
2022-10-28T05:07:35.573Z,9.57
2022-10-28T05:17:38.683Z,9.61
2022-10-28T05:27:42.495Z,9.67
2022-10-28T05:37:45.771Z,9.69
2022-10-28T05:47:49.673Z,9.72
2022-10-28T05:57:54.025Z,9.80
2022-10-28T06:07:57.735Z,9.93
2022-10-28T06:17:59.895Z,10.08
2022-10-28T06:28:05.834Z,10.27
2022-10-28T06:38:13.843Z,10.44
2022-10-28T06:48:19.147Z,10.72
2022-10-28T06:58:23.424Z,11.31
2022-10-28T07:08:34.510Z,12.36
2022-10-28T07:18:38.392Z,13.45
2022-10-28T07:28:41.753Z,14.80
2022-10-28T07:38:48.127Z,15.88
2022-10-28T07:48:51.633Z,16.75
2022-10-28T07:58:55.984Z,17.51
2022-10-28T08:08:59.610Z,17.22
2022-10-28T08:19:07.512Z,16.70
2022-10-28T08:29:12.542Z,16.71
2022-10-28T08:39:16.356Z,16.69
2022-10-28T08:49:24.700Z,16.82
2022-10-28T08:59:27.135Z,17.11
2022-10-28T09:09:31.870Z,17.43
2022-10-28T09:19:37.203Z,17.76
2022-10-28T09:29:45.584Z,17.94
2022-10-28T09:39:51.266Z,18.33
2022-10-28T09:49:57.625Z,18.30
2022-10-28T10:00:01.580Z,18.02
2022-10-28T10:20:10.958Z,18.66
2022-10-28T10:30:16.920Z,18.76
2022-10-28T10:40:47.206Z,18.84
2022-10-28T10:50:52.556Z,18.72
2022-10-28T11:00:56.913Z,18.63
2022-10-28T11:11:12.676Z,18.87
2022-10-28T11:21:27.720Z,18.99
2022-10-28T11:32:03.034Z,18.95
2022-10-28T11:42:11.055Z,18.78
2022-10-28T11:52:21.717Z,18.60
2022-10-28T12:02:30.632Z,18.58
2022-10-28T12:12:33.865Z,18.73
2022-10-28T12:22:46.329Z,18.84
2022-10-28T12:33:12.348Z,18.75
2022-10-28T12:43:24.574Z,18.63
2022-10-28T12:53:30.004Z,18.57
2022-10-28T13:03:33.524Z,18.50
2022-10-28T13:13:54.849Z,18.38
2022-10-28T13:23:58.551Z,18.40
2022-10-28T13:34:02.262Z,18.51
2022-10-28T13:44:25.961Z,18.44
2022-10-28T13:54:30.342Z,18.31
2022-10-28T14:04:34.950Z,18.20
2022-10-28T14:14:39.822Z,18.08
2022-10-28T14:25:02.796Z,17.99
2022-10-28T14:35:18.180Z,17.86
2022-10-28T14:45:41.013Z,17.62
2022-10-28T14:55:46.930Z,17.35
2022-10-28T15:05:50.625Z,17.02
2022-10-28T15:16:19.098Z,16.71
2022-10-28T15:26:41.057Z,16.38
2022-10-28T15:36:49.295Z,16.02
2022-10-28T15:46:52.727Z,15.63
2022-10-28T15:56:59.249Z,15.24
2022-10-28T16:07:06.159Z,14.97
2022-10-28T16:17:15.120Z,14.78
2022-10-28T16:27:18.185Z,14.61
2022-10-28T16:37:21.627Z,14.38
2022-10-28T16:47:26.448Z,14.19
2022-10-28T16:57:30.021Z,14.00
2022-10-28T17:07:33.859Z,13.89
2022-10-28T17:17:37.529Z,13.76
2022-10-28T17:27:41.716Z,13.62
2022-10-28T17:37:45.535Z,13.50
2022-10-28T17:47:48.644Z,13.41
2022-10-28T17:57:52.829Z,13.30
2022-10-28T18:07:56.981Z,13.17
2022-10-28T18:18:00.705Z,13.03
2022-10-28T18:28:05.225Z,12.90
2022-10-28T18:38:09.021Z,12.74
2022-10-28T18:48:30.669Z,12.60
2022-10-28T18:58:34.540Z,12.57
2022-10-28T19:08:58.025Z,12.49
2022-10-28T19:19:02.673Z,12.44
2022-10-28T19:29:24.872Z,12.33
2022-10-28T19:39:46.933Z,12.27
2022-10-28T19:49:50.710Z,12.18
2022-10-28T19:59:54.772Z,12.08
2022-10-28T20:20:03.558Z,11.84
2022-10-28T20:30:24.601Z,11.77
2022-10-28T20:40:28.248Z,11.69
2022-10-28T20:50:31.831Z,11.64
2022-10-28T21:00:54.608Z,11.60
2022-10-28T21:11:17.732Z,11.54
2022-10-28T21:21:39.872Z,11.49
2022-10-28T21:31:43.522Z,11.43
2022-10-28T21:41:47.273Z,11.37
2022-10-28T21:51:51.392Z,11.36
2022-10-28T22:02:13.452Z,11.32
2022-10-28T22:12:17.316Z,11.25
2022-10-28T22:22:20.784Z,11.22
2022-10-28T22:32:24.412Z,11.20
2022-10-28T22:42:46.173Z,11.16
2022-10-28T22:53:08.190Z,11.11
2022-10-28T23:03:34.823Z,11.07
2022-10-28T23:13:38.789Z,11.03
2022-10-28T23:23:46.201Z,11.01
2022-10-28T23:34:09.493Z,10.99
2022-10-28T23:44:31.188Z,10.95
2022-10-28T23:54:34.841Z,10.92
